Watertown, NY (13601)

10:13 AM EDT on September 01, 2014 (GMT -0400)
Calcium NY | Change Station
CLOSE
Current Station
Personal Weather Station
Location: Calcium, NY
Elevation: 489 ft
Nearby Weather Stations

Elev 489 ft 44.03 °N, 75.83 °W | Updated 2 minutes ago

Overcast
Overcast
74.2 °F
Feels Like 75 °F
N
0.0
Wind Variable Wind from North
Gusts 0.0 mph

Today
High -- | Low -- °F
--% Chance of Precip.
Yesterday
High -- | Low -- °F
Precip. -- in
6:26 AM 7:39 PM
Waxing Crescent, 41% visible
Pressure 29.96 in
Visibility 8.0 miles
Clouds Overcast 1400 ft
Heat Index 75 °F
Dew Point 66 °F
Humidity 77%
Rainfall 0.00 in
Snow Depth Not available.
UV 1 out of 12
Pollen 7.30 out of 12
Air Quality Not available.
Flu Activity Not available.
METAR KART 011356Z AUTO 22007KT 8SM OVC014 23/18 A2997 RMK AO2 SLP144 T02280183

More Conditions Fewer Conditions

Pressure 29.96 in
Visibility 8.0 miles
Clouds Overcast 1400 ft
Heat Index 75 °F
Dew Point 66 °F
Humidity 77%
Rainfall 0.00 in
Snow Depth Not available.
UV 1 out of 12
Pollen 7.30 out of 12
Air Quality Not available.
Flu Activity Not available.
METAR KART 011356Z AUTO 22007KT 8SM OVC014 23/18 A2997 RMK AO2 SLP144 T02280183

More Conditions Fewer Conditions

10-Day Weather Forecast

Almanac

Astronomy

Sep. 01, 2014 Rise Set
Actual Time 6:26 AM EDT 7:39 PM EDT
Civil Twilight 5:57 AM EDT 8:09 PM EDT
Nautical Twilight 5:21 AM EDT 8:44 PM EDT
Astronomical Twilight 4:43 AM EDT 9:22 PM EDT
Moon 1:24 PM EDT 11:24 PM EDT
Length of Visible Light 14h 12m
Length of Day
13h 12m
Tomorrow will be 2m 55s shorter.
Waxing Crescent, 41% of the Moon is Illuminated
Today
Waxing Crescent
Sep 2
First Quarter
Sep 8
Full
Sep 15
Last Quarter
Sep 24
New

Today's Extremes

State Highs State Lows

Community

WunderPhotos

Upload Photos

1,749,237 photos uploaded!

Nearby

Air Quality

  Air Quality AQ Index Pollutant
Monday Moderate
OZONE
Monday Moderate
PM2.5
Tuesday Good
PM2.5
Tuesday Good
OZONE

Snow Depth

Station Depth Elevation
No new snow has been reported.

Earthquake Activity

City Distance Mag. Time & Date
No recent earthquake activity has been reported nearby.
Minimum magnitude displayed is 2.5.

Coastal Water Temperatures

Place Temperature
Alexandria Bay, NY 69.1 °F
Ogdensburg, NY 64.9 °F

Nearby Weather Stations